Time;durP1;ratioP1;P1;durP2;ratioP2;P2;SDS_P1;SDS_P2;PMS_P1;PMS_P2;Temp;Humidity;BMP_temperature;BMP_pressure;BME280_temperature;BME280_humidity;BME280_pressure;Samples;Min_cycle;Max_cycle;Signal;HPM_P1;HPM_P2
2021/01/03 05:02:45;;;;;;;1999.90;999.90;;;3.60;99.90;;;;;;5068738;23;20257;-76
2021/01/03 05:05:26;;;;;;;1999.90;999.90;;;3.60;99.90;;;;;;4918728;29;20207;-76
2021/01/03 05:08:03;;;;;;;1999.90;999.90;;;3.60;99.90;;;;;;4918766;29;20210;-76
2021/01/03 05:10:31;;;;;;;1999.90;999.90;;;3.60;99.90;;;;;;4915965;29;20234;-76
2021/01/03 05:13:22;;;;;;;1999.90;999.90;;;3.70;99.90;;;;;;4899772;29;20211;-75
2021/01/03 05:15:49;;;;;;;1999.90;999.90;;;3.60;99.90;;;;;;4901971;29;20214;-78
2021/01/03 05:18:17;;;;;;;1999.90;999.90;;;3.60;99.90;;;;;;4901391;29;20632;-78
2021/01/03 05:20:53;;;;;;;1999.90;999.90;;;3.50;99.90;;;;;;4901708;29;20232;-76
2021/01/03 05:23:21;;;;;;;1999.90;999.90;;;3.60;99.90;;;;;;4901123;29;20211;-76
2021/01/03 05:25:50;;;;;;;1999.90;999.90;;;3.60;99.90;;;;;;4900455;29;20215;-78
2021/01/03 05:28:21;;;;;;;1999.90;999.90;;;3.60;99.90;;;;;;4900854;29;20211;-78
2021/01/03 05:30:48;;;;;;;1999.90;999.90;;;3.70;99.90;;;;;;4901515;29;20235;-79
2021/01/03 05:33:23;;;;;;;1999.90;999.90;;;3.80;99.90;;;;;;4901674;29;20223;-78
2021/01/03 05:35:50;;;;;;;1999.90;999.90;;;3.80;99.90;;;;;;4901180;29;20266;-78
2021/01/03 05:38:35;;;;;;;1999.90;999.90;;;3.80;99.90;;;;;;4901192;29;20215;-78
2021/01/03 05:41:12;;;;;;;1999.90;999.90;;;3.70;99.90;;;;;;4899842;29;20255;-79
2021/01/03 05:43:39;;;;;;;1999.90;999.90;;;3.70;99.90;;;;;;4913338;29;20204;-77
2021/01/03 05:46:18;;;;;;;1999.90;999.90;;;3.60;99.90;;;;;;4921130;29;20214;-78
2021/01/03 05:48:59;;;;;;;1999.90;999.90;;;3.70;99.90;;;;;;4920451;29;20229;-77
2021/01/03 05:51:39;;;;;;;1999.90;999.90;;;3.70;99.90;;;;;;4920955;29;20272;-80
2021/01/03 05:54:11;;;;;;;1999.90;999.90;;;3.60;99.90;;;;;;4921813;29;20210;-80
2021/01/03 05:56:42;;;;;;;1999.90;999.90;;;3.70;99.90;;;;;;4920825;29;20628;-80
2021/01/03 05:59:14;;;;;;;1999.90;999.90;;;3.70;99.90;;;;;;4921706;29;20198;-78
2021/01/03 06:01:41;;;;;;;1999.90;999.90;;;3.80;99.90;;;;;;4920575;29;20663;-80
2021/01/03 06:04:11;;;;;;;1999.90;999.90;;;3.80;99.90;;;;;;4921759;29;20207;-79
2021/01/03 06:06:59;;;;;;;1999.90;999.90;;;3.90;99.90;;;;;;4921447;29;20210;-81
2021/01/03 06:09:36;;;;;;;1999.90;999.90;;;3.90;99.90;;;;;;4920816;29;20255;-81
2021/01/03 06:12:07;;;;;;;1999.90;999.90;;;3.90;99.90;;;;;;4920632;29;20315;-80
2021/01/03 06:14:35;;;;;;;1999.90;999.90;;;3.90;99.90;;;;;;4920169;29;20281;-80
2021/01/03 06:17:15;;;;;;;1999.90;999.90;;;3.90;99.90;;;;;;4919137;29;20210;-76
2021/01/03 06:19:48;;;;;;;1999.90;999.90;;;3.90;99.90;;;;;;4918489;29;20206;-80
2021/01/03 06:22:32;;;;;;;1999.90;999.90;;;3.90;99.90;;;;;;4920527;29;20230;-79
2021/01/03 06:25:00;;;;;;;1999.90;999.90;;;4.00;99.90;;;;;;4919613;29;20198;-80
2021/01/03 06:27:32;;;;;;;1999.90;999.90;;;3.90;99.90;;;;;;4920202;29;20266;-79
2021/01/03 06:30:03;;;;;;;1999.90;999.90;;;3.90;99.90;;;;;;4919856;29;20230;-79
2021/01/03 06:33:11;;;;;;;1999.90;999.90;;;3.90;99.90;;;;;;4919184;29;20256;-79
2021/01/03 06:35:41;;;;;;;1999.90;999.90;;;3.90;99.90;;;;;;4898086;29;20210;-79
2021/01/03 06:38:14;;;;;;;1999.90;999.90;;;3.90;99.90;;;;;;4918398;29;20207;-78
2021/01/03 06:40:50;;;;;;;1999.90;999.90;;;3.80;99.90;;;;;;4921335;29;20230;-80
2021/01/03 06:43:42;;;;;;;1999.90;999.90;;;3.70;99.90;;;;;;4920282;29;20377;-79
2021/01/03 06:46:43;;;;;;;1999.90;999.90;;;3.60;99.90;;;;;;4920409;29;20266;-78
2021/01/03 06:49:30;;;;;;;1999.90;999.90;;;3.70;99.90;;;;;;4882024;29;20231;-79
2021/01/03 06:52:22;;;;;;;1999.90;999.90;;;3.80;99.90;;;;;;4882844;29;20272;-80
2021/01/03 06:55:18;;;;;;;1999.90;999.90;;;3.90;99.90;;;;;;4880611;29;20208;-80
2021/01/03 06:58:13;;;;;;;1999.90;999.90;;;3.90;99.90;;;;;;4878858;29;20208;-78
2021/01/03 07:00:43;;;;;;;1999.90;999.90;;;3.90;99.90;;;;;;4879289;29;20236;-79
2021/01/03 07:03:17;;;;;;;1999.90;999.90;;;3.90;99.90;;;;;;4879128;29;20613;-77
2021/01/03 07:05:52;;;;;;;1999.90;999.90;;;3.90;99.90;;;;;;4895904;29;20262;-77
2021/01/03 07:08:21;;;;;;;1999.90;999.90;;;3.80;99.90;;;;;;4916094;29;20211;-77
2021/01/03 07:10:48;;;;;;;1999.90;999.90;;;3.90;99.90;;;;;;4902752;29;20279;-79
2021/01/03 07:13:38;;;;;;;1999.90;999.90;;;3.90;99.90;;;;;;4900392;29;20684;-79
2021/01/03 07:16:33;;;;;;;1999.90;999.90;;;3.90;99.90;;;;;;4900657;29;20207;-79
2021/01/03 07:19:04;;;;;;;1999.90;999.90;;;3.90;99.90;;;;;;4900622;29;20251;-80
2021/01/03 07:21:41;;;;;;;1999.90;999.90;;;3.90;99.90;;;;;;4900645;29;20232;-80
2021/01/03 07:24:30;;;;;;;1999.90;999.90;;;3.80;99.90;;;;;;4900241;29;20221;-79
2021/01/03 07:27:28;;;;;;;1999.90;999.90;;;3.80;99.90;;;;;;4900235;29;20234;-80
2021/01/03 07:30:29;;;;;;;1999.90;999.90;;;3.70;99.90;;;;;;4899650;29;20240;-79
2021/01/03 07:33:03;;;;;;;1999.90;999.90;;;3.70;99.90;;;;;;4901244;29;20745;-80
2021/01/03 07:35:34;;;;;;;1999.90;999.90;;;3.70;99.90;;;;;;4902297;29;20211;-82
2021/01/03 07:38:26;;;;;;;1999.90;999.90;;;3.70;99.90;;;;;;4899718;29;20713;-81
2021/01/03 07:41:04;;;;;;;1999.90;999.90;;;3.70;99.90;;;;;;4917887;29;20644;-79
2021/01/03 07:43:53;;;;;;;1999.90;999.90;;;3.70;99.90;;;;;;4912501;29;20255;-78
2021/01/03 07:46:42;;;;;;;1999.90;999.90;;;3.60;99.90;;;;;;4900261;29;20211;-79
2021/01/03 07:49:44;;;;;;;1999.90;999.90;;;3.40;99.90;;;;;;4914474;29;20226;-80
2021/01/03 07:52:40;;;;;;;1999.90;999.90;;;3.40;99.90;;;;;;4894537;29;20231;-78
2021/01/03 07:55:23;;;;;;;1999.90;999.90;;;3.50;99.90;;;;;;4896259;29;20195;-79
2021/01/03 07:57:54;;;;;;;1999.90;999.90;;;3.40;99.90;;;;;;4881194;29;20216;-81
2021/01/03 08:00:22;;;;;;;1999.90;999.90;;;3.50;99.90;;;;;;4906095;29;20195;-81
2021/01/03 08:02:54;;;;;;;1999.90;999.90;;;3.50;99.90;;;;;;4894162;29;20627;-82
2021/01/03 08:05:23;;;;;;;1999.90;999.90;;;3.50;99.90;;;;;;4900601;29;20223;-82
2021/01/03 08:07:51;;;;;;;1999.90;999.90;;;3.50;99.90;;;;;;4901393;29;20315;-81
2021/01/03 08:10:19;;;;;;;1999.90;999.90;;;3.40;99.90;;;;;;4900574;29;20227;-82
2021/01/03 08:12:53;;;;;;;1999.90;999.90;;;3.40;99.90;;;;;;4900136;29;20605;-80
2021/01/03 08:15:26;;;;;;;1999.90;999.90;;;3.40;99.90;;;;;;4904164;29;20203;-81
2021/01/03 08:18:00;;;;;;;1999.90;999.90;;;3.40;99.90;;;;;;4905959;29;20235;-81
2021/01/03 08:20:27;;;;;;;1999.90;999.90;;;3.40;99.90;;;;;;4907164;29;20246;-77
2021/01/03 08:22:54;;;;;;;1999.90;999.90;;;3.40;99.90;;;;;;4917313;29;20225;-79
2021/01/03 08:25:24;;;;;;;1999.90;999.90;;;3.40;99.90;;;;;;4913248;29;20214;-78
2021/01/03 08:28:04;;;;;;;1999.90;999.90;;;3.50;99.90;;;;;;4917382;29;20583;-78
2021/01/03 08:30:37;;;;;;;1999.90;999.90;;;3.60;99.90;;;;;;4919001;29;20258;-78
2021/01/03 08:33:12;;;;;;;1999.90;999.90;;;3.60;99.90;;;;;;4917124;29;20263;-79
2021/01/03 08:35:39;;;;;;;1999.90;999.90;;;3.50;99.90;;;;;;4913940;29;20206;-77
2021/01/03 08:38:06;;;;;;;1999.90;999.90;;;3.50;99.90;;;;;;4914302;29;20231;-78
2021/01/03 08:40:35;;;;;;;1999.90;999.90;;;3.50;99.90;;;;;;4917760;29;20227;-78
2021/01/03 08:43:08;;;;;;;1999.90;999.90;;;3.60;99.90;;;;;;4913372;29;20240;-78
2021/01/03 08:45:38;;;;;;;1999.90;999.90;;;3.70;99.90;;;;;;4897052;29;20203;-78
2021/01/03 08:48:10;;;;;;;1999.90;999.90;;;3.80;99.90;;;;;;4896486;29;20195;-76
2021/01/03 08:50:39;;;;;;;1999.90;999.90;;;3.90;99.90;;;;;;4897019;29;20303;-79
2021/01/03 08:53:09;;;;;;;1999.90;999.90;;;3.90;99.90;;;;;;4897460;29;20672;-77
2021/01/03 08:55:38;;;;;;;1999.90;999.90;;;4.00;99.90;;;;;;4902311;29;20199;-77
2021/01/03 08:58:10;;;;;;;1999.90;999.90;;;4.00;99.90;;;;;;4917169;29;20211;-80
2021/01/03 09:00:41;;;;;;;1999.90;999.90;;;3.90;99.90;;;;;;4919277;29;20235;-78
2021/01/03 09:03:16;;;;;;;1999.90;999.90;;;4.00;99.90;;;;;;4921238;29;20207;-77
2021/01/03 09:05:45;;;;;;;1999.90;999.90;;;4.00;99.90;;;;;;4917683;29;20210;-78
2021/01/03 09:08:31;;;;;;;1999.90;999.90;;;4.10;99.90;;;;;;4920033;29;20613;-78
2021/01/03 09:11:05;;;;;;;1999.90;999.90;;;4.10;99.90;;;;;;4920082;29;20255;-80
2021/01/03 09:13:32;;;;;;;1999.90;999.90;;;3.80;99.90;;;;;;4917773;29;20278;-78
2021/01/03 09:16:21;;;;;;;1999.90;999.90;;;3.90;99.90;;;;;;4897832;29;20200;-79
2021/01/03 09:19:05;;;;;;;1999.90;999.90;;;3.80;99.90;;;;;;4878987;29;20268;-80
2021/01/03 09:21:32;;;;;;;1999.90;999.90;;;3.80;99.90;;;;;;4879166;29;20232;-78
2021/01/03 09:24:03;;;;;;;1999.90;999.90;;;3.70;99.90;;;;;;4880220;29;20738;-78
2021/01/03 09:26:39;;;;;;;1999.90;999.90;;;3.70;99.90;;;;;;4881636;29;20212;-81
2021/01/03 09:29:09;;;;;;;1999.90;999.90;;;3.60;99.90;;;;;;4884332;29;20291;-80
2021/01/03 09:31:39;;;;;;;1999.90;999.90;;;3.60;99.90;;;;;;4890130;29;20228;-78
2021/01/03 09:34:12;;;;;;;1999.90;999.90;;;3.60;99.90;;;;;;4897239;29;20208;-78
2021/01/03 09:36:49;;;;;;;1999.90;999.90;;;3.60;99.90;;;;;;4896695;29;20254;-79
2021/01/03 09:39:32;;;;;;;1999.90;999.90;;;3.60;99.90;;;;;;4891725;29;20463;-81
2021/01/03 09:42:23;;;;;;;1999.90;999.90;;;3.50;99.90;;;;;;4884225;29;20232;-78
2021/01/03 09:44:58;;;;;;;1999.90;999.90;;;3.60;99.90;;;;;;4881503;29;20263;-78
2021/01/03 09:47:36;;;;;;;1999.90;999.90;;;3.60;99.90;;;;;;4881283;29;20271;-76
2021/01/03 09:50:16;;;;;;;1999.90;999.90;;;3.70;99.90;;;;;;4881178;29;20220;-77
2021/01/03 09:52:47;;;;;;;1999.90;999.90;;;3.80;99.90;;;;;;4881547;29;20585;-76
2021/01/03 09:55:20;;;;;;;1999.90;999.90;;;3.80;99.90;;;;;;4881546;29;20290;-78
2021/01/03 09:57:55;;;;;;;1999.90;999.90;;;3.90;99.90;;;;;;4881411;29;20698;-78
2021/01/03 10:00:24;;;;;;;1999.90;999.90;;;4.00;99.90;;;;;;4880996;29;20211;-77
2021/01/03 10:03:12;;;;;;;1999.90;999.90;;;3.90;99.90;;;;;;4881572;29;20244;-78
2021/01/03 10:05:39;;;;;;;1999.90;999.90;;;3.80;99.90;;;;;;4881156;29;20208;-77
2021/01/03 10:08:14;;;;;;;1999.90;999.90;;;3.80;99.90;;;;;;4880911;29;20212;-77
2021/01/03 10:10:44;;;;;;;1999.90;999.90;;;3.80;99.90;;;;;;4879955;29;20601;-77
2021/01/03 10:13:11;;;;;;;1999.90;999.90;;;3.90;99.90;;;;;;4899258;29;20397;-78
2021/01/03 10:15:39;;;;;;;1999.90;999.90;;;4.00;99.90;;;;;;4899639;29;20211;-79
2021/01/03 10:18:10;;;;;;;1999.90;999.90;;;4.00;99.90;;;;;;4900224;29;20211;-80
2021/01/03 10:20:41;;;;;;;1999.90;999.90;;;4.00;99.90;;;;;;4914930;29;20223;-80
2021/01/03 10:23:11;;;;;;;1999.90;999.90;;;3.90;99.90;;;;;;4919768;29;20243;-79
2021/01/03 10:25:38;;;;;;;1999.90;999.90;;;3.90;99.90;;;;;;4919513;29;20620;-79
2021/01/03 10:28:11;;;;;;;1999.90;999.90;;;4.00;99.90;;;;;;4919970;29;20282;-79
2021/01/03 10:30:39;;;;;;;1999.90;999.90;;;4.10;99.90;;;;;;4920687;29;20230;-80
2021/01/03 10:33:07;;;;;;;1999.90;999.90;;;4.10;99.90;;;;;;4921187;29;20253;-80
2021/01/03 10:35:35;;;;;;;1999.90;999.90;;;4.10;99.90;;;;;;4922284;29;20207;-81
2021/01/03 10:38:03;;;;;;;1999.90;999.90;;;4.10;99.90;;;;;;4920516;29;20214;-80
2021/01/03 10:40:29;;;;;;;1999.90;999.90;;;4.30;99.90;;;;;;4918328;29;20735;-80
2021/01/03 10:42:56;;;;;;;1999.90;999.90;;;4.30;99.90;;;;;;4918980;29;20235;-78
2021/01/03 10:45:24;;;;;;;1999.90;999.90;;;4.40;99.90;;;;;;4917400;29;20210;-76
2021/01/03 10:47:51;;;;;;;1999.90;999.90;;;4.40;99.90;;;;;;4917903;29;20210;-80
2021/01/03 10:50:21;;;;;;;1999.90;999.90;;;4.30;99.90;;;;;;4918476;29;20230;-77
2021/01/03 10:52:48;;;;;;;1999.90;999.90;;;4.30;99.90;;;;;;4918686;29;20207;-78
2021/01/03 10:55:18;;;;;;;1999.90;999.90;;;4.30;99.90;;;;;;4918420;29;20207;-78
2021/01/03 10:57:45;;;;;;;1999.90;999.90;;;4.30;99.90;;;;;;4917383;29;20206;-79
2021/01/03 11:00:15;;;;;;;1999.90;999.90;;;4.30;99.90;;;;;;4916596;29;20211;-79
2021/01/03 11:02:43;;;;;;;1999.90;999.90;;;4.30;99.90;;;;;;4916905;29;20262;-79
2021/01/03 11:05:11;;;;;;;1999.90;999.90;;;4.30;99.90;;;;;;4916713;29;20290;-79
2021/01/03 11:07:38;;;;;;;1999.90;999.90;;;4.40;99.90;;;;;;4916699;29;20218;-79
2021/01/03 11:10:08;;;;;;;1999.90;999.90;;;4.40;99.90;;;;;;4921708;29;20585;-80
2021/01/03 11:12:35;;;;;;;1999.90;999.90;;;4.20;99.90;;;;;;4907170;29;20211;-81
2021/01/03 11:15:04;;;;;;;1999.90;999.90;;;4.30;99.90;;;;;;4893257;29;20207;-80
2021/01/03 11:17:50;;;;;;;1999.90;999.90;;;4.40;99.90;;;;;;4898457;29;20206;-76
2021/01/03 11:20:16;;;;;;;1999.90;999.90;;;4.40;99.90;;;;;;4897298;29;20251;-76
2021/01/03 11:22:44;;;;;;;1999.90;999.90;;;4.50;99.90;;;;;;4887008;29;20207;-76
2021/01/03 11:25:12;;;;;;;1999.90;999.90;;;4.60;99.90;;;;;;4896718;29;20203;-76
2021/01/03 11:27:39;;;;;;;1999.90;999.90;;;4.60;99.90;;;;;;4896905;29;20199;-76
2021/01/03 11:30:07;;;;;;;1999.90;999.90;;;4.50;99.90;;;;;;4896794;29;20223;-77
2021/01/03 11:32:34;;;;;;;1999.90;999.90;;;4.50;99.90;;;;;;4897520;29;20330;-79
2021/01/03 11:35:03;;;;;;;1999.90;999.90;;;4.50;99.90;;;;;;4897857;29;20221;-82
2021/01/03 11:37:31;;;;;;;1999.90;999.90;;;4.50;99.90;;;;;;4901893;29;20619;-80
2021/01/03 11:39:59;;;;;;;1999.90;999.90;;;4.60;99.90;;;;;;4901608;29;20255;-80
2021/01/03 11:42:30;;;;;;;1999.90;999.90;;;4.50;99.90;;;;;;4900903;29;20223;-80
2021/01/03 11:44:58;;;;;;;1999.90;999.90;;;4.40;99.90;;;;;;4901937;29;20224;-80
2021/01/03 11:47:25;;;;;;;1999.90;999.90;;;4.40;99.90;;;;;;4901687;29;20215;-80
2021/01/03 11:49:52;;;;;;;1999.90;999.90;;;4.50;99.90;;;;;;4900969;29;20283;-84
2021/01/03 11:52:29;;;;;;;1999.90;999.90;;;4.50;99.90;;;;;;4901041;29;20223;-81
2021/01/03 11:54:56;;;;;;;1999.90;999.90;;;4.40;99.90;;;;;;4900025;29;20207;-78
2021/01/03 11:57:24;;;;;;;1999.90;999.90;;;4.50;99.90;;;;;;4901998;29;20202;-79
2021/01/03 11:59:51;;;;;;;1999.90;999.90;;;4.60;99.90;;;;;;4900033;29;20614;-80
2021/01/03 12:02:18;;;;;;;1999.90;999.90;;;4.70;99.90;;;;;;4900447;29;20230;-79
2021/01/03 12:04:45;;;;;;;1999.90;999.90;;;4.60;99.90;;;;;;4899646;29;20720;-79
2021/01/03 12:07:18;;;;;;;1999.90;999.90;;;4.70;99.90;;;;;;4899029;29;20203;-78
2021/01/03 12:09:46;;;;;;;1999.90;999.90;;;4.80;99.90;;;;;;4898741;29;20219;-79
2021/01/03 12:12:15;;;;;;;1999.90;999.90;;;4.70;99.90;;;;;;4899117;29;20219;-79
2021/01/03 12:14:43;;;;;;;1999.90;999.90;;;4.70;99.90;;;;;;4897555;29;20200;-79
2021/01/03 12:17:11;;;;;;;1999.90;999.90;;;4.70;99.90;;;;;;4899582;29;20222;-79
2021/01/03 12:19:39;;;;;;;1999.90;999.90;;;4.70;99.90;;;;;;4900589;29;20625;-79
2021/01/03 12:22:06;;;;;;;1999.90;999.90;;;4.80;99.90;;;;;;4899744;29;20230;-78
2021/01/03 12:24:34;;;;;;;1999.90;999.90;;;4.80;99.90;;;;;;4899550;29;20235;-78
2021/01/03 12:27:03;;;;;;;1999.90;999.90;;;4.90;99.90;;;;;;4899345;29;20591;-79
2021/01/03 12:29:30;;;;;;;1999.90;999.90;;;4.90;99.90;;;;;;4901487;29;20563;-78
2021/01/03 12:32:00;;;;;;;1999.90;999.90;;;4.90;99.90;;;;;;4901701;29;20704;-79
2021/01/03 12:34:28;;;;;;;1999.90;999.90;;;5.00;99.90;;;;;;4901492;29;20741;-78
2021/01/03 12:37:02;;;;;;;1999.90;999.90;;;5.00;99.90;;;;;;4905946;29;20211;-77
2021/01/03 12:39:29;;;;;;;1999.90;999.90;;;4.90;99.90;;;;;;4901783;29;20231;-78
2021/01/03 12:41:57;;;;;;;1999.90;999.90;;;4.80;99.90;;;;;;4905343;29;20231;-78
2021/01/03 12:44:24;;;;;;;1999.90;999.90;;;4.60;99.90;;;;;;4905465;29;20210;-77
2021/01/03 12:46:51;;;;;;;1999.90;999.90;;;4.50;99.90;;;;;;4905459;29;20203;-79
2021/01/03 12:49:19;;;;;;;1999.90;999.90;;;4.30;99.90;;;;;;4905069;29;20207;-80
2021/01/03 12:51:51;;;;;;;1999.90;999.90;;;4.40;99.90;;;;;;4907687;29;20271;-80
2021/01/03 12:54:18;;;;;;;1999.90;999.90;;;4.50;99.90;;;;;;4907702;29;20267;-81
2021/01/03 12:56:45;;;;;;;1999.90;999.90;;;4.50;99.90;;;;;;4909348;29;20199;-80
2021/01/03 12:59:12;;;;;;;1999.90;999.90;;;4.40;99.90;;;;;;4906906;29;20199;-80
2021/01/03 13:01:39;;;;;;;1999.90;999.90;;;4.40;99.90;;;;;;4906051;29;20234;-79
2021/01/03 13:04:07;;;;;;;1999.90;999.90;;;4.50;99.90;;;;;;4910234;29;20632;-79
2021/01/03 13:06:35;;;;;;;1999.90;999.90;;;4.60;99.90;;;;;;4904190;29;20211;-75
2021/01/03 13:09:03;;;;;;;1999.90;999.90;;;4.50;99.90;;;;;;4898926;29;20211;-75
2021/01/03 13:11:30;;;;;;;1999.90;999.90;;;4.60;99.90;;;;;;4899165;29;20657;-75
2021/01/03 13:13:57;;;;;;;1999.90;999.90;;;4.60;99.90;;;;;;4899271;29;20216;-75
2021/01/03 13:16:24;;;;;;;1999.90;999.90;;;4.60;99.90;;;;;;4899147;29;20282;-74
2021/01/03 13:18:51;;;;;;;1999.90;999.90;;;4.50;99.90;;;;;;4898727;29;20266;-75
2021/01/03 13:21:18;;;;;;;1999.90;999.90;;;4.50;99.90;;;;;;4899283;29;20227;-75
2021/01/03 13:23:46;;;;;;;1999.90;999.90;;;4.50;99.90;;;;;;4899465;29;20208;-77
2021/01/03 13:26:13;;;;;;;1999.90;999.90;;;4.40;99.90;;;;;;4900349;29;20204;-77
2021/01/03 13:28:40;;;;;;;1999.90;999.90;;;4.50;99.90;;;;;;4900341;29;20214;-76
2021/01/03 13:31:07;;;;;;;1999.90;999.90;;;4.60;99.90;;;;;;4899835;29;20240;-79
2021/01/03 13:33:34;;;;;;;1999.90;999.90;;;4.60;99.90;;;;;;4903574;29;20219;-76
2021/01/03 13:36:03;;;;;;;1999.90;999.90;;;4.60;99.90;;;;;;4900667;29;20673;-76
2021/01/03 13:38:30;;;;;;;1999.90;999.90;;;4.70;99.90;;;;;;4905331;29;20224;-75
2021/01/03 13:40:58;;;;;;;1999.90;999.90;;;4.80;99.90;;;;;;4910176;29;20271;-78
2021/01/03 13:43:25;;;;;;;1999.90;999.90;;;4.90;99.90;;;;;;4908370;29;20199;-77
2021/01/03 13:45:52;;;;;;;1999.90;999.90;;;5.00;99.90;;;;;;4915063;29;20429;-77
2021/01/03 13:48:19;;;;;;;1999.90;999.90;;;5.00;99.90;;;;;;4901143;29;20237;-79
2021/01/03 13:50:45;;;;;;;1999.90;999.90;;;5.00;99.90;;;;;;4899060;29;20275;-77
2021/01/03 13:53:12;;;;;;;1999.90;999.90;;;5.00;99.90;;;;;;4901206;29;20270;-82
2021/01/03 13:55:39;;;;;;;1999.90;999.90;;;5.00;99.90;;;;;;4907516;29;20206;-76
2021/01/03 13:58:07;;;;;;;1999.90;999.90;;;4.90;99.90;;;;;;4915647;29;20274;-79
2021/01/03 14:00:34;;;;;;;1999.90;999.90;;;4.90;99.90;;;;;;4909327;29;20219;-78
2021/01/03 14:03:01;;;;;;;1999.90;999.90;;;4.80;99.90;;;;;;4902369;29;20287;-80
2021/01/03 14:05:30;;;;;;;1999.90;999.90;;;4.90;99.90;;;;;;4905093;29;20644;-78
2021/01/03 14:07:57;;;;;;;1999.90;999.90;;;5.00;99.90;;;;;;4911980;29;20207;-77
2021/01/03 14:10:24;;;;;;;1999.90;999.90;;;5.00;99.90;;;;;;4910061;29;20220;-77
2021/01/03 14:12:52;;;;;;;1999.90;999.90;;;4.90;99.90;;;;;;4908859;29;20202;-81
2021/01/03 14:15:20;;;;;;;1999.90;999.90;;;4.90;99.90;;;;;;4909889;29;20215;-79
2021/01/03 14:17:47;;;;;;;1999.90;999.90;;;4.80;99.90;;;;;;4901636;29;20211;-84
2021/01/03 14:20:17;;;;;;;1999.90;999.90;;;4.90;99.90;;;;;;4902281;29;20632;-78
2021/01/03 14:22:44;;;;;;;1999.90;999.90;;;4.90;99.90;;;;;;4900507;29;20207;-78
2021/01/03 14:25:15;;;;;;;1999.90;999.90;;;5.00;99.90;;;;;;4901319;29;20214;-81
2021/01/03 14:27:42;;;;;;;1999.90;999.90;;;5.00;99.90;;;;;;4902225;29;20215;-80
2021/01/03 14:30:10;;;;;;;1999.90;999.90;;;5.00;99.90;;;;;;4901194;29;20227;-79
2021/01/03 14:32:37;;;;;;;1999.90;999.90;;;5.00;99.90;;;;;;4899219;29;20259;-76
2021/01/03 14:35:07;;;;;;;1999.90;999.90;;;4.90;99.90;;;;;;4897012;29;20550;-76
2021/01/03 14:37:38;;;;;;;1999.90;999.90;;;5.00;99.90;;;;;;4897874;29;20207;-75
2021/01/03 14:40:08;;;;;;;1999.90;999.90;;;4.90;99.90;;;;;;4898086;29;20214;-76
2021/01/03 14:42:39;;;;;;;1999.90;999.90;;;4.90;99.90;;;;;;4898315;29;20227;-76
2021/01/03 14:45:10;;;;;;;1999.90;999.90;;;4.90;99.90;;;;;;4898995;29;20207;-76
2021/01/03 14:47:46;;;;;;;1999.90;999.90;;;5.00;99.90;;;;;;4898462;29;20583;-76
2021/01/03 14:50:41;;;;;;;1999.90;999.90;;;4.90;99.90;;;;;;4897854;29;20609;-76
2021/01/03 14:53:11;;;;;;;1999.90;999.90;;;4.90;99.90;;;;;;4898131;29;20211;-75
2021/01/03 14:56:08;;;;;;;1999.90;999.90;;;4.80;99.90;;;;;;4898192;29;20211;-75
2021/01/03 14:58:44;;;;;;;1999.90;999.90;;;4.70;99.90;;;;;;4896427;29;20207;-76
2021/01/03 15:01:23;;;;;;;1999.90;999.90;;;4.70;99.90;;;;;;4897667;29;20238;-76
2021/01/03 15:04:08;;;;;;;1999.90;999.90;;;4.70;99.90;;;;;;4897927;29;20282;-76
2021/01/03 15:06:51;;;;;;;1999.90;999.90;;;4.80;99.90;;;;;;4897897;29;20219;-76
2021/01/03 15:09:18;;;;;;;1999.90;999.90;;;4.90;99.90;;;;;;4897331;29;20211;-76
2021/01/03 15:11:50;;;;;;;1999.90;999.90;;;4.90;99.90;;;;;;4897579;29;20238;-76
2021/01/03 15:14:17;;;;;;;1999.90;999.90;;;5.00;99.90;;;;;;4897665;29;20211;-76
2021/01/03 15:16:44;;;;;;;1999.90;999.90;;;4.90;99.90;;;;;;4897689;29;20210;-76
2021/01/03 15:19:18;;;;;;;1999.90;999.90;;;4.90;99.90;;;;;;4897358;29;20215;-76
2021/01/03 15:21:45;;;;;;;1999.90;999.90;;;4.90;99.90;;;;;;4897390;29;20222;-76
2021/01/03 15:24:14;;;;;;;1999.90;999.90;;;4.80;99.90;;;;;;4897567;29;20719;-76
2021/01/03 15:26:46;;;;;;;1999.90;999.90;;;4.90;99.90;;;;;;4897461;29;20215;-76
2021/01/03 15:29:16;;;;;;;1999.90;999.90;;;4.80;99.90;;;;;;4897049;29;20211;-76
2021/01/03 15:31:47;;;;;;;1999.90;999.90;;;4.80;99.90;;;;;;4899439;29;20231;-76
2021/01/03 15:34:23;;;;;;;1999.90;999.90;;;4.90;99.90;;;;;;4900206;29;20346;-75
2021/01/03 15:36:51;;;;;;;1999.90;999.90;;;4.90;99.90;;;;;;4901638;29;20211;-76
2021/01/03 15:39:18;;;;;;;1999.90;999.90;;;5.00;99.90;;;;;;4904101;29;20211;-76
2021/01/03 15:42:01;;;;;;;1999.90;999.90;;;4.90;99.90;;;;;;4901857;29;20275;-76
2021/01/03 15:44:37;;;;;;;1999.90;999.90;;;5.00;99.90;;;;;;4900599;29;20207;-76
2021/01/03 15:47:11;;;;;;;1999.90;999.90;;;5.00;99.90;;;;;;4893828;29;20253;-76
2021/01/03 15:49:39;;;;;;;1999.90;999.90;;;5.00;99.90;;;;;;4898423;29;20625;-76
2021/01/03 15:52:06;;;;;;;1999.90;999.90;;;5.00;99.90;;;;;;4901952;29;20306;-76
2021/01/03 15:54:37;;;;;;;1999.90;999.90;;;5.00;99.90;;;;;;4901390;29;20211;-78
2021/01/03 15:57:05;;;;;;;1999.90;999.90;;;5.10;99.90;;;;;;4899992;29;20211;-78
2021/01/03 15:59:32;;;;;;;1999.90;999.90;;;5.10;99.90;;;;;;4901941;29;20207;-77
2021/01/03 16:02:03;;;;;;;1999.90;999.90;;;5.10;99.90;;;;;;4901585;29;20227;-77
2021/01/03 16:04:30;;;;;;;1999.90;999.90;;;5.10;99.90;;;;;;4902190;29;20677;-77
2021/01/03 16:06:58;;;;;;;1999.90;999.90;;;5.10;99.90;;;;;;4901025;29;20263;-76
2021/01/03 16:09:25;;;;;;;1999.90;999.90;;;5.00;99.90;;;;;;4902893;29;20211;-76
2021/01/03 16:11:53;;;;;;;1999.90;999.90;;;5.00;99.90;;;;;;4902895;29;20231;-76
2021/01/03 16:14:20;;;;;;;1999.90;999.90;;;5.00;99.90;;;;;;4904008;29;20620;-76
2021/01/03 16:16:47;;;;;;;1999.90;999.90;;;5.00;99.90;;;;;;4903624;29;20445;-76
2021/01/03 16:19:28;;;;;;;1999.90;999.90;;;5.00;99.90;;;;;;4902689;29;20214;-76
2021/01/03 16:22:15;;;;;;;1999.90;999.90;;;5.00;99.90;;;;;;4902950;29;20274;-78
2021/01/03 16:24:51;;;;;;;1999.90;999.90;;;5.10;99.90;;;;;;4902711;29;20215;-77
2021/01/03 16:27:25;;;;;;;1999.90;999.90;;;5.10;99.90;;;;;;4902842;29;20269;-77
2021/01/03 16:29:57;;;;;;;1999.90;999.90;;;5.10;99.90;;;;;;4902567;29;20211;-76
2021/01/03 16:32:39;;;;;;;1999.90;999.90;;;5.00;99.90;;;;;;4902846;29;20231;-76
2021/01/03 16:35:26;;;;;;;1999.90;999.90;;;5.00;99.90;;;;;;4903889;29;20207;-75
2021/01/03 16:38:13;;;;;;;1999.90;999.90;;;5.00;99.90;;;;;;4902901;29;20242;-75
2021/01/03 16:40:49;;;;;;;1999.90;999.90;;;5.00;99.90;;;;;;4902452;29;20222;-75
2021/01/03 16:43:26;;;;;;;1999.90;999.90;;;5.00;99.90;;;;;;4902383;29;20262;-76
2021/01/03 16:46:05;;;;;;;1999.90;999.90;;;5.00;99.90;;;;;;4905084;29;20274;-79
2021/01/03 16:49:03;;;;;;;1999.90;999.90;;;5.00;99.90;;;;;;4906733;29;20604;-80
2021/01/03 16:51:37;;;;;;;1999.90;999.90;;;5.00;99.90;;;;;;4907011;29;20227;-79
2021/01/03 16:54:13;;;;;;;1999.90;999.90;;;5.00;99.90;;;;;;4925580;29;20206;-79
2021/01/03 16:56:57;;;;;;;1999.90;999.90;;;5.00;99.90;;;;;;4926537;29;20206;-79
2021/01/03 16:59:46;;;;;;;1999.90;999.90;;;4.90;99.90;;;;;;4925599;29;20210;-79
2021/01/03 17:02:17;;;;;;;1999.90;999.90;;;4.90;99.90;;;;;;4914378;29;20287;-76
2021/01/03 17:04:44;;;;;;;1999.90;999.90;;;5.00;99.90;;;;;;4904578;29;20211;-79
2021/01/03 17:07:14;;;;;;;1999.90;999.90;;;4.90;99.90;;;;;;4904363;29;20203;-79
2021/01/03 17:10:11;;;;;;;1999.90;999.90;;;4.90;99.90;;;;;;4906730;29;20206;-79
2021/01/03 17:13:05;;;;;;;1999.90;999.90;;;4.90;99.90;;;;;;4906787;29;20260;-79
2021/01/03 17:15:41;;;;;;;1999.90;999.90;;;4.80;99.90;;;;;;4906392;29;20211;-81
2021/01/03 17:18:15;;;;;;;1999.90;999.90;;;4.80;99.90;;;;;;4913713;29;20267;-82
2021/01/03 17:20:52;;;;;;;1999.90;999.90;;;4.90;99.90;;;;;;4903746;29;20701;-82
2021/01/03 17:23:29;;;;;;;1999.90;999.90;;;4.90;99.90;;;;;;4903567;29;20211;-80
2021/01/03 17:26:06;;;;;;;1999.90;999.90;;;4.90;99.90;;;;;;4904149;29;20207;-81
2021/01/03 17:28:56;;;;;;;1999.90;999.90;;;4.90;99.90;;;;;;4902803;29;20210;-81
2021/01/03 17:31:42;;;;;;;1999.90;999.90;;;4.90;99.90;;;;;;4902104;29;20231;-81
2021/01/03 17:34:17;;;;;;;1999.90;999.90;;;4.90;99.90;;;;;;4905029;29;20279;-80
2021/01/03 17:37:03;;;;;;;1999.90;999.90;;;5.00;99.90;;;;;;4900074;29;20238;-79
2021/01/03 17:39:34;;;;;;;1999.90;999.90;;;5.00;99.90;;;;;;4898485;29;20740;-77